Time;durP1;ratioP1;P1;durP2;ratioP2;P2;SDS_P1;SDS_P2;PMS_P1;PMS_P2;Temp;Humidity;BMP_temperature;BMP_pressure;BME280_temperature;BME280_humidity;BME280_pressure;Samples;Min_cycle;Max_cycle;Signal;HPM_P1;HPM_P2
2021/05/16 00:01:24;;;;;;;11.07;7.30;;;10.20;99.90;;;;;;5092832;28;20093;-95
2021/05/16 00:03:50;;;;;;;11.35;7.05;;;10.30;99.90;;;;;;5070259;28;20036;-95
2021/05/16 00:06:17;;;;;;;10.05;7.78;;;10.30;99.90;;;;;;5093318;28;20074;-94
2021/05/16 00:08:43;;;;;;;11.50;7.50;;;10.30;99.90;;;;;;5076197;28;20044;-94
2021/05/16 00:14:12;;;;;;;12.57;8.20;;;10.40;99.90;;;;;;5093744;28;20046;-93
2021/05/16 00:16:38;;;;;;;15.18;7.95;;;10.40;99.90;;;;;;5075637;28;20377;-96
2021/05/16 00:19:23;;;;;;;14.85;8.73;;;10.40;99.90;;;;;;5081625;28;20039;-96
2021/05/16 00:21:49;;;;;;;14.43;7.95;;;10.40;99.90;;;;;;5082028;28;20074;-95
2021/05/16 00:24:53;;;;;;;14.48;8.35;;;10.40;99.90;;;;;;5089392;28;20434;-95
2021/05/16 00:27:37;;;;;;;11.13;6.80;;;10.40;99.90;;;;;;5081301;28;20522;-93
2021/05/16 00:32:55;;;;;;;11.13;7.53;;;10.30;99.90;;;;;;5095320;28;20093;-93
2021/05/16 00:35:42;;;;;;;15.43;8.20;;;10.30;99.90;;;;;;5094426;28;20060;-93
2021/05/16 00:38:08;;;;;;;16.45;8.05;;;10.40;99.90;;;;;;5097835;28;20476;-93
2021/05/16 00:40:53;;;;;;;17.52;9.13;;;10.30;99.90;;;;;;5098501;28;20036;-94
2021/05/16 00:43:19;;;;;;;18.45;8.13;;;10.40;99.90;;;;;;5080792;28;20044;-92
2021/05/16 00:45:47;;;;;;;12.48;6.60;;;10.40;99.90;;;;;;5082729;28;20039;-94
2021/05/16 00:48:50;;;;;;;13.77;6.45;;;10.40;99.90;;;;;;5090615;28;20036;-95
2021/05/16 00:54:21;;;;;;;12.90;6.15;;;10.40;99.90;;;;;;5079161;28;20066;-95
2021/05/16 00:56:46;;;;;;;12.43;6.45;;;10.50;99.90;;;;;;5061630;28;20481;-95
2021/05/16 00:59:32;;;;;;;13.48;7.25;;;10.50;99.90;;;;;;5078963;28;20031;-96
2021/05/16 01:02:00;;;;;;;11.48;6.15;;;10.50;99.90;;;;;;5077555;28;20093;-96
2021/05/16 01:10:16;;;;;;;14.93;7.18;;;10.50;99.90;;;;;;5080276;28;20035;-95
2021/05/16 01:13:00;;;;;;;11.43;6.65;;;10.50;99.90;;;;;;5077994;28;20046;-94
2021/05/16 01:18:14;;;;;;;18.45;7.07;;;10.50;99.90;;;;;;5063365;28;20487;-94
2021/05/16 01:23:32;;;;;;;17.42;7.40;;;10.50;99.90;;;;;;5076195;28;20503;-96
2021/05/16 01:29:21;;;;;;;15.97;6.87;;;10.50;99.90;;;;;;5062402;28;20047;-96
2021/05/16 01:31:47;;;;;;;15.38;6.65;;;10.40;99.90;;;;;;5057999;28;20305;-96
2021/05/16 01:34:31;;;;;;;14.60;7.97;;;10.40;99.90;;;;;;5058197;28;20032;-95
2021/05/16 01:36:57;;;;;;;19.48;8.45;;;10.40;99.90;;;;;;5062667;28;20032;-95
2021/05/16 01:39:41;;;;;;;23.92;8.50;;;10.40;99.90;;;;;;5098335;28;20039;-94
2021/05/16 01:45:13;;;;;;;;;;;10.40;99.90;;;;;;5096762;28;20395;-95
2021/05/16 01:47:39;;;;;;;21.13;7.63;;;10.30;99.90;;;;;;5078035;28;19911;-95
2021/05/16 01:50:43;;;;;;;16.77;6.85;;;10.30;99.90;;;;;;5095711;28;20050;-94
2021/05/16 01:56:19;;;;;;;24.33;9.35;;;10.30;99.90;;;;;;5081338;28;20269;-94
2021/05/16 01:59:04;;;;;;;17.20;7.65;;;10.30;99.90;;;;;;5077700;28;20131;-95
2021/05/16 02:02:07;;;;;;;14.73;7.20;;;10.30;99.90;;;;;;5078461;28;20040;-95
2021/05/16 02:04:51;;;;;;;19.00;8.77;;;10.30;99.90;;;;;;5094913;28;20122;-95
2021/05/16 02:07:17;;;;;;;19.40;7.90;;;10.30;99.90;;;;;;5077113;28;20060;-96
2021/05/16 02:12:48;;;;;;;17.80;9.00;;;10.30;99.90;;;;;;5102999;28;20050;-94
2021/05/16 02:15:14;;;;;;;21.27;9.52;;;10.30;99.90;;;;;;5077816;28;20036;-96
2021/05/16 02:23:29;;;;;;;18.48;8.90;;;10.30;99.90;;;;;;5080453;28;20055;-95
2021/05/16 02:25:55;;;;;;;24.80;8.30;;;10.30;99.90;;;;;;5078220;28;20024;-96
2021/05/16 02:28:21;;;;;;;20.08;8.32;;;10.30;99.90;;;;;;5096270;28;20032;-96
2021/05/16 02:31:24;;;;;;;18.88;6.47;;;10.30;99.90;;;;;;5078074;28;20035;-96
2021/05/16 02:37:31;;;;;;;26.33;8.13;;;10.30;99.90;;;;;;5095795;28;20073;-96
2021/05/16 02:40:15;;;;;;;17.42;7.28;;;10.30;99.90;;;;;;5096001;28;20043;-96
2021/05/16 02:43:00;;;;;;;28.35;8.63;;;10.30;99.90;;;;;;5095584;28;20037;-96
2021/05/16 02:48:09;;;;;;;19.88;7.28;;;10.30;99.90;;;;;;5095140;28;20078;-96
2021/05/16 02:53:38;;;;;;;18.73;7.77;;;10.20;99.90;;;;;;5080416;28;20097;-95
2021/05/16 02:56:04;;;;;;;20.42;9.43;;;10.20;99.90;;;;;;5060344;28;20465;-96
2021/05/16 03:06:44;;;;;;;25.38;9.32;;;10.20;99.90;;;;;;5095725;28;20043;-95
2021/05/16 03:09:30;;;;;;;23.90;9.55;;;10.20;99.90;;;;;;5077700;28;20032;-96
2021/05/16 03:12:14;;;;;;;25.80;9.32;;;10.20;99.90;;;;;;5078969;28;20040;-96
2021/05/16 03:14:59;;;;;;;26.13;9.88;;;10.20;99.90;;;;;;5077497;28;20182;-95
2021/05/16 03:17:24;;;;;;;25.42;8.20;;;10.20;99.90;;;;;;5077787;28;20025;-95
2021/05/16 03:23:12;;;;;;;25.05;7.72;;;10.20;99.90;;;;;;5094793;28;20093;-95
2021/05/16 03:31:08;;;;;;;18.67;6.93;;;10.20;99.90;;;;;;5083799;28;20563;-96
2021/05/16 03:36:36;;;;;;;14.20;6.18;;;10.20;99.90;;;;;;5100783;28;20058;-94
2021/05/16 03:41:49;;;;;;;23.35;7.85;;;10.20;99.90;;;;;;5100235;28;20062;-95
2021/05/16 03:44:15;;;;;;;21.80;7.50;;;10.20;99.90;;;;;;5095739;28;20032;-95
2021/05/16 03:46:59;;;;;;;24.05;8.50;;;10.20;99.90;;;;;;5103449;28;20042;-95
2021/05/16 03:55:31;;;;;;;23.10;9.02;;;10.20;99.90;;;;;;5098507;28;20121;-94
2021/05/16 03:57:56;;;;;;;27.65;9.68;;;10.20;99.90;;;;;;5080391;28;20028;-95
2021/05/16 04:00:41;;;;;;;22.60;9.30;;;10.20;99.90;;;;;;5098114;28;20150;-94
2021/05/16 04:03:27;;;;;;;26.23;9.95;;;10.20;99.90;;;;;;5080293;28;20173;-94
2021/05/16 04:08:55;;;;;;;33.83;10.57;;;10.20;99.90;;;;;;5098204;28;20545;-94
2021/05/16 04:11:21;;;;;;;23.80;11.07;;;10.20;99.90;;;;;;5096925;28;20052;-95
2021/05/16 04:20:13;;;;;;;23.38;10.02;;;10.20;99.90;;;;;;5097828;28;20031;-94
2021/05/16 04:22:40;;;;;;;27.83;12.05;;;10.20;99.90;;;;;;5079388;28;20047;-95
2021/05/16 04:25:24;;;;;;;26.02;12.43;;;10.20;99.90;;;;;;5079201;28;20047;-93
2021/05/16 04:27:50;;;;;;;26.38;11.50;;;10.20;99.90;;;;;;5079304;28;20054;-93
2021/05/16 04:30:16;;;;;;;26.65;11.65;;;10.20;99.90;;;;;;5079148;28;20032;-94
2021/05/16 04:33:00;;;;;;;24.33;11.27;;;10.30;99.90;;;;;;5079572;28;20032;-94
2021/05/16 04:35:26;;;;;;;40.03;14.95;;;10.20;99.90;;;;;;5079156;28;20032;-95
2021/05/16 04:38:10;;;;;;;30.05;15.25;;;10.20;99.90;;;;;;5079154;28;20036;-94
2021/05/16 04:40:36;;;;;;;36.92;15.48;;;10.20;99.90;;;;;;5096776;28;20032;-95
2021/05/16 04:43:01;;;;;;;27.27;13.05;;;10.20;99.90;;;;;;5078911;28;20059;-94
2021/05/16 04:45:27;;;;;;;35.83;14.32;;;10.20;99.90;;;;;;5080207;28;20357;-94
2021/05/16 04:50:56;;;;;;;29.92;14.55;;;10.30;99.90;;;;;;5098134;28;20103;-95
2021/05/16 04:53:59;;;;;;;32.33;12.88;;;10.30;99.90;;;;;;5080677;28;20040;-95
2021/05/16 04:56:43;;;;;;;37.97;12.48;;;10.30;99.90;;;;;;5079942;28;20090;-94
2021/05/16 04:59:09;;;;;;;31.02;14.52;;;10.30;99.90;;;;;;5079322;28;20094;-94
2021/05/16 05:01:54;;;;;;;29.05;14.95;;;10.30;99.90;;;;;;5079074;28;20063;-95
2021/05/16 05:07:06;;;;;;;36.30;14.65;;;10.30;99.90;;;;;;5097780;28;20120;-95
2021/05/16 05:09:33;;;;;;;32.25;13.52;;;10.40;99.90;;;;;;5079792;28;20028;-95
2021/05/16 05:12:18;;;;;;;29.10;13.43;;;10.40;99.90;;;;;;5098011;28;20475;-96
2021/05/16 05:14:46;;;;;;;33.00;13.95;;;10.40;99.90;;;;;;5084297;28;20477;-94
2021/05/16 05:17:12;;;;;;;27.63;14.25;;;10.40;99.90;;;;;;5090108;28;20058;-95
2021/05/16 05:19:37;;;;;;;26.48;13.32;;;10.50;99.90;;;;;;5083438;28;20468;-95
2021/05/16 05:25:06;;;;;;;38.13;15.73;;;10.50;99.90;;;;;;5096972;28;20034;-95
2021/05/16 05:27:31;;;;;;;36.00;14.60;;;10.40;99.90;;;;;;5095269;28;20451;-95
2021/05/16 05:32:41;;;;;;;24.98;12.60;;;10.40;99.90;;;;;;5096288;28;20085;-95
2021/05/16 05:41:14;;;;;;;24.63;12.60;;;10.50;99.90;;;;;;5096132;28;20126;-94
2021/05/16 05:46:42;;;;;;;27.52;12.82;;;10.50;99.90;;;;;;5096121;28;20253;-94
2021/05/16 05:49:08;;;;;;;33.50;13.80;;;10.60;99.90;;;;;;5077462;28;20048;-94
2021/05/16 05:51:52;;;;;;;31.08;15.50;;;10.60;99.90;;;;;;5078016;28;20028;-95
2021/05/16 05:54:37;;;;;;;30.92;14.55;;;10.60;99.90;;;;;;5077549;28;20038;-94
2021/05/16 05:57:04;;;;;;;33.67;15.98;;;10.70;99.90;;;;;;5096078;28;20036;-95
2021/05/16 05:59:35;;;;;;;35.20;15.70;;;10.70;99.90;;;;;;5085944;28;20100;-95
2021/05/16 06:02:02;;;;;;;31.88;15.45;;;10.70;99.90;;;;;;5062372;28;20040;-96
2021/05/16 06:07:50;;;;;;;34.17;17.45;;;10.70;99.90;;;;;;5096618;28;20093;-96
2021/05/16 06:10:15;;;;;;;33.95;17.35;;;10.70;99.90;;;;;;5077772;28;20032;-96
2021/05/16 06:13:19;;;;;;;28.25;16.92;;;10.80;99.90;;;;;;5077511;28;20086;-96
2021/05/16 06:16:04;;;;;;;41.73;18.57;;;10.80;99.90;;;;;;5077755;28;20139;-96
2021/05/16 06:18:29;;;;;;;37.33;18.83;;;10.90;99.90;;;;;;5077013;28;20278;-96
2021/05/16 06:24:18;;;;;;;39.60;18.75;;;11.00;99.90;;;;;;5095903;28;20050;-96
2021/05/16 06:27:21;;;;;;;42.60;18.73;;;11.00;99.90;;;;;;5077834;28;20043;-95
2021/05/16 06:29:47;;;;;;;44.08;20.05;;;11.00;99.90;;;;;;5095693;28;20035;-95
2021/05/16 06:32:13;;;;;;;38.03;18.50;;;11.00;99.90;;;;;;5077605;28;20036;-95
2021/05/16 06:37:41;;;;;;;44.33;17.77;;;11.10;99.90;;;;;;5080192;28;20079;-94
2021/05/16 06:40:11;;;;;;;39.00;16.98;;;11.20;99.90;;;;;;5077341;28;20500;-94
2021/05/16 06:42:37;;;;;;;32.17;15.75;;;11.20;99.90;;;;;;5077419;28;20039;-95
2021/05/16 06:48:06;;;;;;;26.52;12.48;;;11.20;99.90;;;;;;5096421;28;20115;-95
2021/05/16 06:50:34;;;;;;;24.35;12.63;;;11.30;99.90;;;;;;5085297;28;20456;-94
2021/05/16 06:56:21;;;;;;;34.08;14.52;;;11.50;99.90;;;;;;5080077;28;20097;-94
2021/05/16 06:58:47;;;;;;;29.23;13.90;;;11.60;99.90;;;;;;5077219;28;20032;-95
2021/05/16 07:04:34;;;;;;;36.13;13.98;;;11.60;99.90;;;;;;5094605;28;20408;-94
2021/05/16 07:13:08;;;;;;;29.55;13.32;;;11.90;99.90;;;;;;5079347;28;20539;-94
2021/05/16 07:15:33;;;;;;;31.52;14.32;;;11.80;99.90;;;;;;5078013;28;20036;-92
2021/05/16 07:20:47;;;;;;;29.23;14.40;;;11.80;99.90;;;;;;5079662;28;20499;-93
2021/05/16 07:23:13;;;;;;;27.83;13.13;;;11.90;99.90;;;;;;5076753;28;20044;-92
2021/05/16 07:25:59;;;;;;;30.23;14.77;;;11.90;99.90;;;;;;5077003;28;20066;-94
2021/05/16 07:34:31;;;;;;;25.98;11.82;;;11.90;99.90;;;;;;5094885;28;20451;-93
2021/05/16 07:36:57;;;;;;;29.85;12.50;;;11.80;99.90;;;;;;5076956;28;20040;-94
2021/05/16 07:39:26;;;;;;;32.65;12.45;;;11.80;99.90;;;;;;5075308;28;20040;-93
2021/05/16 07:42:10;;;;;;;28.88;12.20;;;11.80;99.90;;;;;;5073940;28;20044;-94
2021/05/16 07:44:36;;;;;;;21.30;10.07;;;11.70;99.90;;;;;;5073988;28;20043;-93
2021/05/16 07:47:02;;;;;;;21.77;10.80;;;11.70;99.90;;;;;;5074601;28;20036;-93
2021/05/16 07:49:28;;;;;;;27.95;12.18;;;11.70;99.90;;;;;;5073839;28;20131;-92
2021/05/16 07:54:38;;;;;;;26.25;12.02;;;11.80;99.90;;;;;;5092853;28;20085;-94
2021/05/16 07:57:05;;;;;;;23.90;13.43;;;11.90;99.90;;;;;;5074344;28;20040;-93
2021/05/16 07:59:33;;;;;;;28.10;13.10;;;12.10;99.90;;;;;;5075234;28;20036;-91
2021/05/16 08:02:03;;;;;;;28.58;16.15;;;12.10;99.90;;;;;;5075179;28;20119;-93
2021/05/16 08:07:16;;;;;;;30.00;14.65;;;12.20;99.90;;;;;;5092682;28;20035;-93
2021/05/16 08:15:35;;;;;;;28.83;16.58;;;12.60;99.90;;;;;;5090546;28;20042;-93
2021/05/16 08:18:26;;;;;;;30.67;18.50;;;12.70;99.90;;;;;;5092040;28;20036;-93
2021/05/16 08:21:10;;;;;;;27.60;16.92;;;12.90;99.90;;;;;;5074144;28;20048;-92
2021/05/16 08:27:16;;;;;;;23.17;15.00;;;12.90;99.90;;;;;;5093893;28;20047;-94
2021/05/16 08:30:01;;;;;;;30.70;15.35;;;13.00;99.90;;;;;;5039669;28;20493;-92
2021/05/16 08:35:30;;;;;;;29.58;16.67;;;12.80;99.90;;;;;;5077386;28;20082;-92
2021/05/16 08:37:55;;;;;;;24.00;15.65;;;12.60;99.90;;;;;;5085146;28;20403;-92
2021/05/16 08:40:41;;;;;;;31.38;16.73;;;12.50;99.90;;;;;;5062475;28;20041;-93
2021/05/16 08:45:53;;;;;;;33.22;17.35;;;12.70;99.90;;;;;;5065186;28;20043;-93
2021/05/16 08:48:22;;;;;;;26.50;15.30;;;12.90;99.90;;;;;;5076598;28;20093;-92
2021/05/16 08:57:03;;;;;;;28.65;18.17;;;13.30;99.90;;;;;;5094234;28;20097;-92
2021/05/16 09:03:28;;;;;;;31.42;17.20;;;13.80;99.90;;;;;;5093549;28;20070;-90
2021/05/16 09:14:15;;;;;;;18.88;13.27;;;14.10;99.90;;;;;;5077810;28;20510;-92
2021/05/16 09:19:51;;;;;;;24.00;14.43;;;14.40;99.90;;;;;;5091493;28;20121;-91
2021/05/16 09:22:39;;;;;;;23.13;12.82;;;14.60;99.90;;;;;;5076516;28;20044;-92
2021/05/16 09:25:26;;;;;;;24.63;12.73;;;14.70;99.90;;;;;;5075671;28;20096;-91
2021/05/16 09:27:56;;;;;;;22.52;13.18;;;15.00;99.90;;;;;;5074874;28;20181;-91
2021/05/16 09:30:42;;;;;;;22.38;12.25;;;15.30;99.90;;;;;;5090621;28;20043;-90
2021/05/16 09:33:29;;;;;;;19.63;11.90;;;15.60;99.90;;;;;;5076613;28;20032;-92
2021/05/16 09:36:18;;;;;;;25.95;12.23;;;15.90;99.90;;;;;;5076342;28;20062;-91
2021/05/16 09:41:39;;;;;;;18.48;10.82;;;15.50;99.90;;;;;;5097295;28;20172;-92
2021/05/16 09:44:38;;;;;;;18.10;10.00;;;15.30;99.90;;;;;;5096169;28;20139;-91
2021/05/16 09:50:07;;;;;;;20.23;9.75;;;16.60;99.90;;;;;;5092193;28;20527;-92
2021/05/16 09:59:16;;;;;;;17.87;6.77;;;18.10;99.90;;;;;;5094657;28;20085;-91
2021/05/16 10:05:10;;;;;;;11.98;4.90;;;19.60;99.90;;;;;;5067757;28;20425;-91
2021/05/16 10:08:02;;;;;;;11.45;4.38;;;19.20;98.90;;;;;;5075864;28;20032;-90
2021/05/16 10:10:49;;;;;;;18.23;4.72;;;19.10;99.10;;;;;;5060286;28;20033;-91
2021/05/16 10:13:15;;;;;;;15.38;4.60;;;18.60;99.10;;;;;;5044083;28;20068;-91
2021/05/16 10:15:42;;;;;;;11.60;3.90;;;18.30;99.10;;;;;;5058093;28;20037;-90
2021/05/16 10:18:09;;;;;;;13.80;4.93;;;18.00;99.20;;;;;;5059819;28;20029;-90
2021/05/16 10:24:10;;;;;;;9.48;3.92;;;18.40;98.40;;;;;;5076155;28;20107;-91
2021/05/16 10:26:37;;;;;;;14.13;4.30;;;18.10;98.80;;;;;;5057551;28;20527;-91
2021/05/16 10:29:10;;;;;;;15.10;3.55;;;17.70;99.50;;;;;;5060248;28;20040;-91
2021/05/16 10:31:45;;;;;;;13.38;3.80;;;17.50;99.80;;;;;;5042773;28;20066;-90
2021/05/16 10:34:48;;;;;;;13.73;4.03;;;17.30;99.70;;;;;;5057988;28;20048;-90
2021/05/16 10:37:36;;;;;;;13.85;4.28;;;17.30;98.60;;;;;;5076291;28;20033;-90
2021/05/16 10:50:47;;;;;;;10.77;3.40;;;16.60;99.90;;;;;;5077488;28;20123;-90
2021/05/16 10:53:26;;;;;;;9.18;2.85;;;17.00;99.90;;;;;;5078803;28;20044;-89
2021/05/16 10:56:32;;;;;;;17.90;3.92;;;17.60;99.90;;;;;;5078395;28;20409;-91
2021/05/16 10:59:21;;;;;;;;;;;;;;;;;;;;;
2021/05/16 11:02:07;;;;;;;10.80;3.22;;;17.50;99.10;;;;;;5077966;28;20096;-89
2021/05/16 11:07:39;;;;;;;9.38;3.50;;;16.80;99.90;;;;;;5060397;28;20400;-90
2021/05/16 11:10:29;;;;;;;9.55;3.05;;;17.60;99.90;;;;;;5055232;28;20037;-90
2021/05/16 11:13:15;;;;;;;12.52;3.35;;;18.80;99.90;;;;;;5056977;28;20473;-90
2021/05/16 11:15:48;;;;;;;9.95;3.28;;;19.40;99.10;;;;;;5056544;28;20178;-90
2021/05/16 11:18:17;;;;;;;8.55;2.83;;;19.10;99.00;;;;;;5074137;28;20078;-89
2021/05/16 11:27:39;;;;;;;11.85;3.58;;;20.00;98.30;;;;;;5074642;28;20086;-88
2021/05/16 11:30:16;;;;;;;11.55;3.05;;;21.20;96.60;;;;;;5056153;28;20033;-89
2021/05/16 11:32:52;;;;;;;8.80;2.58;;;22.10;95.60;;;;;;5074129;28;20052;-90
2021/05/16 11:38:24;;;;;;;9.88;2.88;;;21.20;94.10;;;;;;5074189;28;20094;-91
2021/05/16 11:40:51;;;;;;;8.68;2.92;;;20.10;95.60;;;;;;5073662;28;20115;-91
2021/05/16 11:46:38;;;;;;;7.25;2.45;;;18.30;95.60;;;;;;5074451;28;20523;-89
2021/05/16 11:49:24;;;;;;;4.47;2.00;;;17.00;98.60;;;;;;5073788;28;20049;-92
2021/05/16 11:51:50;;;;;;;6.80;2.00;;;15.60;99.90;;;;;;5059465;28;20044;-90
2021/05/16 11:54:17;;;;;;;7.13;2.20;;;14.70;99.90;;;;;;5043039;28;20059;-90
2021/05/16 11:57:04;;;;;;;4.30;1.77;;;14.10;99.90;;;;;;5059729;28;20029;-88
2021/05/16 12:02:17;;;;;;;3.25;1.60;;;13.80;99.90;;;;;;5077605;28;20047;-88
2021/05/16 12:04:48;;;;;;;4.60;1.42;;;13.90;99.90;;;;;;5060059;28;20041;-88
2021/05/16 12:10:29;;;;;;;3.78;1.65;;;14.30;99.90;;;;;;5077370;28;20101;-88
2021/05/16 12:12:55;;;;;;;6.28;2.30;;;14.90;99.90;;;;;;5077156;28;20033;-88
2021/05/16 12:18:26;;;;;;;5.82;2.40;;;15.10;99.90;;;;;;5077250;28;20047;-88
2021/05/16 12:24:04;;;;;;;;;;;16.70;99.90;;;;;;5061757;28;20137;-88
2021/05/16 12:26:36;;;;;;;5.55;2.03;;;17.60;99.90;;;;;;5058691;28;19911;-89
2021/05/16 12:29:21;;;;;;;6.68;1.90;;;18.60;99.90;;;;;;5058189;28;20039;-88
2021/05/16 12:31:48;;;;;;;4.20;1.70;;;19.60;99.90;;;;;;5076150;28;20060;-89
2021/05/16 12:34:44;;;;;;;4.97;1.40;;;19.90;99.90;;;;;;5058471;28;20040;-89
2021/05/16 12:40:29;;;;;;;3.58;1.20;;;19.40;99.90;;;;;;5079127;28;20118;-89
2021/05/16 12:43:05;;;;;;;4.63;1.20;;;19.20;99.90;;;;;;5093197;28;20044;-90
2021/05/16 12:45:53;;;;;;;4.82;1.50;;;19.50;99.90;;;;;;5082377;28;20024;-90
2021/05/16 12:48:22;;;;;;;5.38;1.25;;;20.40;99.90;;;;;;5082201;28;20032;-90
2021/05/16 12:51:10;;;;;;;8.40;1.33;;;21.30;99.90;;;;;;5081080;28;20052;-91
2021/05/16 12:53:54;;;;;;;6.35;1.67;;;21.70;98.40;;;;;;5079458;28;20032;-91
2021/05/16 12:56:53;;;;;;;8.10;1.27;;;21.60;97.90;;;;;;5085420;28;20036;-89
2021/05/16 12:59:54;;;;;;;4.10;1.30;;;20.90;96.10;;;;;;5084288;28;20044;-89
2021/05/16 13:02:47;;;;;;;4.07;1.20;;;20.00;97.50;;;;;;5076843;28;20043;-90
2021/05/16 13:08:39;;;;;;;6.80;1.67;;;18.80;98.40;;;;;;5093608;28;20047;-89
2021/05/16 13:11:10;;;;;;;4.68;1.33;;;18.00;98.90;;;;;;5076808;28;20051;-90
2021/05/16 13:13:57;;;;;;;4.75;1.17;;;17.40;99.80;;;;;;5068885;28;20039;-90
2021/05/16 13:16:53;;;;;;;4.78;1.30;;;17.10;99.90;;;;;;5094899;28;20043;-92
2021/05/16 13:19:32;;;;;;;6.32;1.55;;;16.60;99.90;;;;;;5084300;28;20093;-90
2021/05/16 13:25:11;;;;;;;5.00;1.88;;;15.10;99.90;;;;;;5065611;28;20055;-91
2021/05/16 13:27:43;;;;;;;5.65;1.70;;;14.30;99.90;;;;;;5076937;28;20055;-93
2021/05/16 13:33:29;;;;;;;4.70;1.92;;;13.20;99.90;;;;;;5085503;28;20112;-92
2021/05/16 13:36:01;;;;;;;4.85;1.85;;;13.00;99.90;;;;;;5073497;28;20563;-92
2021/05/16 13:38:33;;;;;;;5.50;1.90;;;12.80;99.90;;;;;;5059750;28;20113;-94
2021/05/16 13:41:00;;;;;;;5.00;1.77;;;12.60;99.90;;;;;;5075537;28;20036;-92
2021/05/16 13:43:27;;;;;;;4.13;1.60;;;12.50;99.90;;;;;;5074104;28;20047;-91
2021/05/16 13:51:42;;;;;;;2.72;1.13;;;12.10;99.90;;;;;;5072228;28;20120;-93
2021/05/16 13:54:31;;;;;;;2.75;1.15;;;12.10;99.90;;;;;;5091702;28;20044;-93
2021/05/16 13:56:59;;;;;;;3.28;1.60;;;12.20;99.90;;;;;;5073460;28;20032;-94
2021/05/16 14:05:03;;;;;;;4.30;1.67;;;12.40;99.90;;;;;;5083868;28;20113;-93
2021/05/16 14:07:47;;;;;;;5.07;1.80;;;12.50;99.90;;;;;;5062656;28;20055;-92
2021/05/16 14:10:33;;;;;;;5.20;2.08;;;12.70;99.90;;;;;;5067378;28;20036;-93
2021/05/16 14:13:02;;;;;;;2.78;1.25;;;13.00;99.90;;;;;;5078231;28;20032;-92
2021/05/16 14:15:31;;;;;;;3.95;1.48;;;13.40;99.90;;;;;;5066410;28;20527;-94
2021/05/16 14:18:21;;;;;;;4.78;1.90;;;13.90;99.90;;;;;;5079918;28;20123;-93
2021/05/16 14:23:31;;;;;;;3.47;1.70;;;14.80;99.90;;;;;;5094365;28;20097;-93
2021/05/16 14:39:39;;;;;;;1.90;1.10;;;16.90;99.90;;;;;;5093842;28;20054;-92
2021/05/16 14:42:27;;;;;;;2.97;1.23;;;17.10;99.90;;;;;;5092094;28;20088;-94
2021/05/16 14:45:22;;;;;;;1.70;0.80;;;17.10;99.90;;;;;;5090407;28;20035;-95
2021/05/16 14:53:10;;;;;;;2.38;1.10;;;18.10;99.90;;;;;;5091299;28;20028;-95
2021/05/16 14:55:57;;;;;;;4.90;1.27;;;18.30;99.90;;;;;;5058734;28;20036;-93
2021/05/16 14:58:25;;;;;;;1.63;0.73;;;18.40;99.90;;;;;;5085191;28;20514;-95
2021/05/16 15:01:02;;;;;;;2.83;1.02;;;18.30;99.90;;;;;;5083996;28;20009;-92
2021/05/16 15:03:35;;;;;;;1.40;0.68;;;17.90;99.90;;;;;;5091896;28;20131;-95
2021/05/16 15:15:04;;;;;;;2.28;0.73;;;16.50;99.90;;;;;;5083732;28;20074;-94
2021/05/16 15:20:15;;;;;;;2.40;0.80;;;16.10;99.90;;;;;;5077660;28;20557;-94
2021/05/16 15:22:59;;;;;;;3.05;0.85;;;16.00;99.90;;;;;;5041357;28;20044;-93
2021/05/16 15:25:25;;;;;;;2.05;0.80;;;15.90;99.90;;;;;;5078651;28;20046;-94
2021/05/16 15:30:57;;;;;;;2.20;0.80;;;15.80;99.90;;;;;;5101360;28;20031;-92
2021/05/16 15:37:06;;;;;;;3.30;1.20;;;15.90;99.90;;;;;;5102994;28;20039;-95
2021/05/16 15:39:33;;;;;;;2.88;1.10;;;15.80;99.90;;;;;;5084179;28;20040;-93
2021/05/16 15:42:12;;;;;;;4.13;1.00;;;15.70;99.90;;;;;;5067398;28;20035;-96
2021/05/16 15:44:44;;;;;;;3.40;0.90;;;15.70;99.90;;;;;;5082804;28;20051;-93
2021/05/16 15:47:30;;;;;;;2.80;0.90;;;15.60;99.90;;;;;;5079700;28;20111;-93
2021/05/16 15:53:09;;;;;;;3.42;1.20;;;15.50;99.90;;;;;;5111275;28;20043;-94
2021/05/16 15:55:53;;;;;;;2.97;0.90;;;15.30;99.90;;;;;;5103570;28;20031;-92
2021/05/16 15:58:41;;;;;;;2.67;0.93;;;15.30;99.90;;;;;;5121932;28;20035;-94
2021/05/16 16:01:35;;;;;;;3.40;0.75;;;15.40;99.90;;;;;;5108196;28;20033;-93
2021/05/16 16:09:56;;;;;;;4.07;1.40;;;15.40;99.90;;;;;;5094721;28;20039;-94
2021/05/16 16:15:31;;;;;;;3.17;1.30;;;15.50;99.90;;;;;;5084114;28;20043;-91
2021/05/16 16:18:04;;;;;;;2.47;0.98;;;15.40;99.90;;;;;;5092968;28;20028;-93
2021/05/16 16:26:24;;;;;;;3.33;0.95;;;15.60;99.90;;;;;;5098017;28;20078;-94
2021/05/16 16:28:52;;;;;;;1.85;0.90;;;15.60;99.90;;;;;;5077596;28;20031;-93
2021/05/16 16:31:24;;;;;;;2.20;1.00;;;15.60;99.90;;;;;;5080078;28;20032;-94
2021/05/16 16:34:17;;;;;;;2.90;1.23;;;15.60;99.90;;;;;;5077341;28;20028;-93
2021/05/16 16:37:05;;;;;;;;;;;15.60;99.90;;;;;;5078864;28;20032;-94
2021/05/16 16:49:10;;;;;;;4.80;1.42;;;15.90;99.90;;;;;;5097346;28;20039;-94
2021/05/16 16:51:38;;;;;;;2.35;1.17;;;16.00;99.90;;;;;;5077134;28;20488;-93
2021/05/16 16:54:28;;;;;;;3.25;1.23;;;16.10;99.90;;;;;;5082449;28;20122;-92
2021/05/16 16:57:18;;;;;;;4.10;1.00;;;16.20;99.90;;;;;;5077571;28;20459;-91
2021/05/16 17:00:24;;;;;;;2.83;1.08;;;16.10;99.90;;;;;;5079974;28;20040;-93
2021/05/16 17:02:57;;;;;;;3.50;0.98;;;16.10;99.90;;;;;;5091245;28;20040;-94
2021/05/16 17:05:25;;;;;;;4.43;1.57;;;16.10;99.90;;;;;;5081833;28;20096;-94
2021/05/16 17:08:04;;;;;;;5.13;1.17;;;16.10;99.90;;;;;;5052948;28;20043;-93
2021/05/16 17:10:54;;;;;;;2.88;1.10;;;16.10;99.90;;;;;;5065529;28;20051;-94
2021/05/16 17:13:39;;;;;;;5.70;1.40;;;16.10;99.90;;;;;;5098367;28;20028;-93
2021/05/16 17:16:06;;;;;;;2.63;1.20;;;15.90;99.90;;;;;;5080738;28;20063;-93
2021/05/16 17:21:47;;;;;;;4.68;1.33;;;15.70;99.90;;;;;;5082901;28;20177;-92
2021/05/16 17:30:26;;;;;;;4.68;1.45;;;15.40;99.90;;;;;;5084031;28;20101;-92
2021/05/16 17:33:17;;;;;;;3.83;1.50;;;15.30;99.90;;;;;;5081412;28;20040;-91
2021/05/16 17:39:09;;;;;;;3.97;1.38;;;15.10;99.90;;;;;;5095925;28;20051;-93
2021/05/16 17:41:55;;;;;;;5.07;1.52;;;15.00;99.90;;;;;;5077133;28;20032;-93
2021/05/16 17:47:28;;;;;;;4.97;2.00;;;14.80;99.90;;;;;;5094632;28;20039;-93
2021/05/16 17:50:22;;;;;;;4.20;1.58;;;14.80;99.90;;;;;;5059716;28;20142;-93
2021/05/16 17:52:49;;;;;;;4.82;1.42;;;14.80;99.90;;;;;;5095553;28;20040;-93
2021/05/16 17:55:15;;;;;;;3.90;1.45;;;14.80;99.90;;;;;;5075313;28;20044;-92
2021/05/16 17:58:18;;;;;;;7.13;1.50;;;14.80;99.90;;;;;;5075767;28;20028;-93
2021/05/16 18:00:45;;;;;;;3.47;1.33;;;14.80;99.90;;;;;;5076478;28;20036;-93
2021/05/16 18:06:21;;;;;;;4.47;1.98;;;14.70;99.90;;;;;;5093832;28;20120;-93
2021/05/16 18:08:46;;;;;;;3.33;1.50;;;14.70;99.90;;;;;;5058286;28;20036;-92
2021/05/16 18:14:46;;;;;;;2.72;0.98;;;14.70;99.90;;;;;;5093292;28;20043;-93
2021/05/16 18:20:55;;;;;;;4.20;1.23;;;14.70;99.90;;;;;;5089190;28;20055;-91
2021/05/16 18:26:51;;;;;;;4.00;1.40;;;14.60;99.90;;;;;;5059611;28;20558;-92
2021/05/16 18:29:22;;;;;;;4.78;1.70;;;14.50;99.90;;;;;;5071049;28;20041;-92
2021/05/16 18:31:54;;;;;;;3.22;1.42;;;14.50;99.90;;;;;;5054120;28;20056;-92
2021/05/16 18:37:29;;;;;;;2.60;1.20;;;14.40;99.90;;;;;;5074517;28;20253;-90
2021/05/16 18:43:10;;;;;;;4.35;1.27;;;14.30;99.90;;;;;;5079619;28;20039;-91
2021/05/16 18:51:35;;;;;;;3.08;1.38;;;14.00;99.90;;;;;;5090074;28;20098;-91
2021/05/16 18:56:54;;;;;;;5.97;1.70;;;13.90;99.90;;;;;;5096301;28;20055;-91
2021/05/16 18:59:21;;;;;;;4.43;1.33;;;13.80;99.90;;;;;;5092742;28;20062;-90
2021/05/16 19:01:51;;;;;;;3.63;1.60;;;13.80;99.90;;;;;;5073002;28;20070;-90
2021/05/16 19:04:39;;;;;;;2.92;1.10;;;13.70;99.90;;;;;;5068398;28;20044;-90
2021/05/16 19:10:09;;;;;;;3.65;1.40;;;13.70;99.90;;;;;;5076598;28;20043;-89
2021/05/16 19:13:06;;;;;;;2.65;1.10;;;13.60;99.90;;;;;;5077942;28;20040;-90
2021/05/16 19:15:42;;;;;;;2.83;1.30;;;13.50;99.90;;;;;;5091503;28;20024;-91
2021/05/16 19:18:30;;;;;;;;;;;13.40;99.90;;;;;;5092243;28;20480;-90
2021/05/16 19:20:58;;;;;;;4.07;1.38;;;13.30;99.90;;;;;;5073587;28;19904;-90
2021/05/16 19:26:37;;;;;;;3.78;1.33;;;13.30;99.90;;;;;;5076190;28;20047;-89
2021/05/16 19:29:07;;;;;;;2.58;1.27;;;13.20;99.90;;;;;;5076157;28;20032;-91
2021/05/16 19:31:34;;;;;;;3.03;1.20;;;13.10;99.90;;;;;;5060209;28;20089;-90
2021/05/16 19:34:40;;;;;;;2.67;1.30;;;13.10;99.90;;;;;;5095033;28;20138;-90
2021/05/16 19:37:32;;;;;;;3.40;1.50;;;13.10;99.90;;;;;;5094351;28;20070;-90
2021/05/16 19:40:21;;;;;;;2.92;1.50;;;13.00;99.90;;;;;;5076973;28;20066;-91
2021/05/16 19:43:11;;;;;;;2.45;1.38;;;13.00;99.90;;;;;;5094327;28;20131;-91
2021/05/16 19:46:00;;;;;;;3.30;1.60;;;12.90;99.90;;;;;;5076507;28;20021;-90